sensor_id;sensor_type;location;lat;lon;timestamp;pressure;altitude;pressure_sealevel;temperature;humidity
12763;BME280;6445;52.490;13.378;2023-02-04T00:00:19;18661.31;;;-146.10;100.00
12763;BME280;6445;52.490;13.378;2023-02-04T00:02:44;13079.59;;;-146.10;100.00
12763;BME280;6445;52.490;13.378;2023-02-04T00:05:13;8771.97;;;-146.10;100.00
12763;BME280;6445;52.490;13.378;2023-02-04T00:07:38;5228.06;;;-146.10;100.00
12763;BME280;6445;52.490;13.378;2023-02-04T00:10:04;171.00;;;-146.10;100.00
12763;BME280;6445;52.490;13.378;2023-02-04T00:12:30;-3365.00;;;-146.10;100.00
12763;BME280;6445;52.490;13.378;2023-02-04T00:14:55;-6645.50;;;-146.10;100.00
12763;BME280;6445;52.490;13.378;2023-02-04T00:17:20;-8410.78;;;-146.10;100.00
12763;BME280;6445;52.490;13.378;2023-02-04T00:19:46;-9167.06;;;-146.10;100.00
12763;BME280;6445;52.490;13.378;2023-02-04T00:22:11;-9671.19;;;-146.10;100.00
12763;BME280;6445;52.490;13.378;2023-02-04T00:24:37;-9419.13;;;-146.10;100.00
12763;BME280;6445;52.490;13.378;2023-02-04T00:27:03;-9671.19;;;-146.10;100.00
12763;BME280;6445;52.490;13.378;2023-02-04T00:29:29;-9671.19;;;-146.10;100.00
12763;BME280;6445;52.490;13.378;2023-02-04T00:31:54;-9923.22;;;-146.10;100.00
12763;BME280;6445;52.490;13.378;2023-02-04T00:34:20;-9923.22;;;-146.10;100.00
12763;BME280;6445;52.490;13.378;2023-02-04T00:36:45;-9671.19;;;-146.10;100.00
12763;BME280;6445;52.490;13.378;2023-02-04T00:39:11;-9671.19;;;-146.10;100.00
12763;BME280;6445;52.490;13.378;2023-02-04T00:41:36;-9923.22;;;-146.10;100.00
12763;BME280;6445;52.490;13.378;2023-02-04T00:44:01;-10175.25;;;-146.10;100.00
12763;BME280;6445;52.490;13.378;2023-02-04T00:46:27;-10679.22;;;-146.10;100.00
12763;BME280;6445;52.490;13.378;2023-02-04T00:48:52;-10679.22;;;-146.10;100.00
12763;BME280;6445;52.490;13.378;2023-02-04T00:51:17;-10679.22;;;-146.10;100.00
12763;BME280;6445;52.490;13.378;2023-02-04T00:53:42;-11183.13;;;-146.10;100.00
12763;BME280;6445;52.490;13.378;2023-02-04T00:56:08;-11435.06;;;-146.10;100.00
12763;BME280;6445;52.490;13.378;2023-02-04T00:58:33;-11435.06;;;-146.10;100.00
12763;BME280;6445;52.490;13.378;2023-02-04T01:00:58;-11435.06;;;-146.10;100.00
12763;BME280;6445;52.490;13.378;2023-02-04T01:03:23;-11183.13;;;-146.10;100.00
12763;BME280;6445;52.490;13.378;2023-02-04T01:05:49;-10931.19;;;-146.10;100.00
12763;BME280;6445;52.490;13.378;2023-02-04T01:08:14;-10931.19;;;-146.10;100.00
12763;BME280;6445;52.490;13.378;2023-02-04T01:10:39;-11435.06;;;-146.10;100.00
12763;BME280;6445;52.490;13.378;2023-02-04T01:13:05;-11435.06;;;-146.10;100.00
12763;BME280;6445;52.490;13.378;2023-02-04T01:15:32;-11687.00;;;-146.10;100.00
12763;BME280;6445;52.490;13.378;2023-02-04T01:17:57;-11435.06;;;-146.10;100.00
12763;BME280;6445;52.490;13.378;2023-02-04T01:20:22;-11183.13;;;-146.10;100.00
12763;BME280;6445;52.490;13.378;2023-02-04T01:22:48;-10931.19;;;-146.10;100.00
12763;BME280;6445;52.490;13.378;2023-02-04T01:25:13;-10679.22;;;-146.10;100.00
12763;BME280;6445;52.490;13.378;2023-02-04T01:27:38;-10427.25;;;-146.10;100.00
12763;BME280;6445;52.490;13.378;2023-02-04T01:30:04;-10679.22;;;-146.10;100.00
12763;BME280;6445;52.490;13.378;2023-02-04T01:32:30;-10679.22;;;-146.10;100.00
12763;BME280;6445;52.490;13.378;2023-02-04T01:34:55;-11183.13;;;-146.10;100.00
12763;BME280;6445;52.490;13.378;2023-02-04T01:37:20;-10679.22;;;-146.10;100.00
12763;BME280;6445;52.490;13.378;2023-02-04T01:39:45;-10679.22;;;-146.10;100.00
12763;BME280;6445;52.490;13.378;2023-02-04T01:42:11;-10931.19;;;-146.10;100.00
12763;BME280;6445;52.490;13.378;2023-02-04T01:44:36;-10931.19;;;-146.10;100.00
12763;BME280;6445;52.490;13.378;2023-02-04T01:47:01;-11183.13;;;-146.10;100.00
12763;BME280;6445;52.490;13.378;2023-02-04T01:49:27;-11435.06;;;-146.10;100.00
12763;BME280;6445;52.490;13.378;2023-02-04T01:51:53;-11435.06;;;-146.10;100.00
12763;BME280;6445;52.490;13.378;2023-02-04T01:54:18;-11435.06;;;-146.10;100.00
12763;BME280;6445;52.490;13.378;2023-02-04T01:56:46;-11687.00;;;-146.10;100.00
12763;BME280;6445;52.490;13.378;2023-02-04T01:59:14;-11687.00;;;-146.10;100.00
12763;BME280;6445;52.490;13.378;2023-02-04T02:01:45;-11435.06;;;-146.10;100.00
12763;BME280;6445;52.490;13.378;2023-02-04T02:04:14;-11435.06;;;-146.10;100.00
12763;BME280;6445;52.490;13.378;2023-02-04T02:06:43;-11435.06;;;-146.10;100.00
12763;BME280;6445;52.490;13.378;2023-02-04T02:09:09;-11435.06;;;-146.10;100.00
12763;BME280;6445;52.490;13.378;2023-02-04T02:11:35;-11687.00;;;-146.10;100.00
12763;BME280;6445;52.490;13.378;2023-02-04T02:14:01;-11687.00;;;-146.10;100.00
12763;BME280;6445;52.490;13.378;2023-02-04T02:16:26;-10931.19;;;-146.10;100.00
12763;BME280;6445;52.490;13.378;2023-02-04T02:18:52;-10427.25;;;-146.10;100.00
12763;BME280;6445;52.490;13.378;2023-02-04T02:21:30;-9923.22;;;-146.10;100.00
12763;BME280;6445;52.490;13.378;2023-02-04T02:23:56;-9167.06;;;-146.10;100.00
12763;BME280;6445;52.490;13.378;2023-02-04T02:26:22;-8410.78;;;-146.10;100.00
12763;BME280;6445;52.490;13.378;2023-02-04T02:28:48;-8158.66;;;-146.10;100.00
12763;BME280;6445;52.490;13.378;2023-02-04T02:31:15;-7654.34;;;-146.10;100.00
12763;BME280;6445;52.490;13.378;2023-02-04T02:33:41;-7654.34;;;-146.10;100.00
12763;BME280;6445;52.490;13.378;2023-02-04T02:36:07;-7149.94;;;-146.10;100.00
12763;BME280;6445;52.490;13.378;2023-02-04T02:38:32;-6897.75;;;-146.10;100.00
12763;BME280;6445;52.490;13.378;2023-02-04T02:40:59;-7149.94;;;-146.10;100.00
12763;BME280;6445;52.490;13.378;2023-02-04T02:43:26;-7654.34;;;-146.10;100.00
12763;BME280;6445;52.490;13.378;2023-02-04T02:45:53;-7149.94;;;-146.10;100.00
12763;BME280;6445;52.490;13.378;2023-02-04T02:48:19;-7654.34;;;-146.10;100.00
12763;BME280;6445;52.490;13.378;2023-02-04T02:50:44;-8158.66;;;-146.10;100.00
12763;BME280;6445;52.490;13.378;2023-02-04T02:53:15;-8410.78;;;-146.10;100.00
12763;BME280;6445;52.490;13.378;2023-02-04T02:55:41;-8662.91;;;-146.10;100.00
12763;BME280;6445;52.490;13.378;2023-02-04T02:58:21;-8915.00;;;-146.10;100.00
12763;BME280;6445;52.490;13.378;2023-02-04T03:00:47;-9419.13;;;-146.10;100.00
12763;BME280;6445;52.490;13.378;2023-02-04T03:03:19;-9923.22;;;-146.10;100.00
12763;BME280;6445;52.490;13.378;2023-02-04T03:05:49;-10679.22;;;-146.10;100.00
12763;BME280;6445;52.490;13.378;2023-02-04T03:08:15;-10931.19;;;-146.10;100.00
12763;BME280;6445;52.490;13.378;2023-02-04T03:10:41;-11183.13;;;-146.10;100.00
12763;BME280;6445;52.490;13.378;2023-02-04T03:13:07;-11687.00;;;-146.10;100.00
12763;BME280;6445;52.490;13.378;2023-02-04T03:15:33;-11938.88;;;-146.10;100.00
12763;BME280;6445;52.490;13.378;2023-02-04T03:17:59;-11938.88;;;-146.10;100.00
12763;BME280;6445;52.490;13.378;2023-02-04T03:20:26;-12190.78;;;-146.10;100.00
12763;BME280;6445;52.490;13.378;2023-02-04T03:22:53;-12190.78;;;-146.10;100.00
12763;BME280;6445;52.490;13.378;2023-02-04T03:25:18;-12190.78;;;-146.10;100.00
12763;BME280;6445;52.490;13.378;2023-02-04T03:27:44;-12190.78;;;-146.10;100.00
12763;BME280;6445;52.490;13.378;2023-02-04T03:30:10;-12190.78;;;-146.10;100.00
12763;BME280;6445;52.490;13.378;2023-02-04T03:32:37;-12190.78;;;-146.10;100.00
12763;BME280;6445;52.490;13.378;2023-02-04T03:35:02;-12190.78;;;-146.10;100.00
12763;BME280;6445;52.490;13.378;2023-02-04T03:37:28;-12442.63;;;-146.10;100.00
12763;BME280;6445;52.490;13.378;2023-02-04T03:39:53;-12442.63;;;-146.10;100.00
12763;BME280;6445;52.490;13.378;2023-02-04T03:42:18;-12442.63;;;-146.10;100.00
12763;BME280;6445;52.490;13.378;2023-02-04T03:44:43;-12694.50;;;-146.10;100.00
12763;BME280;6445;52.490;13.378;2023-02-04T03:47:09;-12694.50;;;-146.10;100.00
12763;BME280;6445;52.490;13.378;2023-02-04T03:49:34;-12694.50;;;-146.10;100.00
12763;BME280;6445;52.490;13.378;2023-02-04T03:52:00;-12694.50;;;-146.10;100.00
12763;BME280;6445;52.490;13.378;2023-02-04T03:54:25;-12694.50;;;-146.10;100.00
12763;BME280;6445;52.490;13.378;2023-02-04T03:56:51;-12694.50;;;-146.10;100.00
12763;BME280;6445;52.490;13.378;2023-02-04T03:59:16;-12694.50;;;-146.10;100.00
12763;BME280;6445;52.490;13.378;2023-02-04T04:01:41;-12694.50;;;-146.10;100.00
12763;BME280;6445;52.490;13.378;2023-02-04T04:04:06;-12695.97;;;-146.10;100.00
12763;BME280;6445;52.490;13.378;2023-02-04T04:06:32;-12695.97;;;-146.10;100.00
12763;BME280;6445;52.490;13.378;2023-02-04T04:08:57;-12695.97;;;-146.10;100.00
12763;BME280;6445;52.490;13.378;2023-02-04T04:11:22;-12695.97;;;-146.10;100.00
12763;BME280;6445;52.490;13.378;2023-02-04T04:13:47;-12694.50;;;-146.10;100.00
12763;BME280;6445;52.490;13.378;2023-02-04T04:16:13;-12694.50;;;-146.10;100.00
12763;BME280;6445;52.490;13.378;2023-02-04T04:18:38;-12695.97;;;-146.10;100.00
12763;BME280;6445;52.490;13.378;2023-02-04T04:21:03;-12695.97;;;-146.10;100.00
12763;BME280;6445;52.490;13.378;2023-02-04T04:23:29;-12695.97;;;-146.10;100.00
12763;BME280;6445;52.490;13.378;2023-02-04T04:25:54;-12694.50;;;-146.10;100.00
12763;BME280;6445;52.490;13.378;2023-02-04T04:28:19;-12694.50;;;-146.10;100.00
12763;BME280;6445;52.490;13.378;2023-02-04T04:30:44;-12694.50;;;-146.10;100.00
12763;BME280;6445;52.490;13.378;2023-02-04T04:33:09;-12694.50;;;-146.10;100.00
12763;BME280;6445;52.490;13.378;2023-02-04T04:35:35;-12694.50;;;-146.10;100.00
12763;BME280;6445;52.490;13.378;2023-02-04T04:38:01;-12442.63;;;-146.10;100.00
12763;BME280;6445;52.490;13.378;2023-02-04T04:40:26;-12442.63;;;-146.10;100.00
12763;BME280;6445;52.490;13.378;2023-02-04T04:42:51;-12442.63;;;-146.10;100.00
12763;BME280;6445;52.490;13.378;2023-02-04T04:45:17;-12442.63;;;-146.10;100.00
12763;BME280;6445;52.490;13.378;2023-02-04T04:47:42;-12442.63;;;-146.10;100.00
12763;BME280;6445;52.490;13.378;2023-02-04T04:50:08;-12442.63;;;-146.10;100.00
12763;BME280;6445;52.490;13.378;2023-02-04T04:52:33;-12442.63;;;-146.10;100.00
12763;BME280;6445;52.490;13.378;2023-02-04T04:54:58;-12694.50;;;-146.10;100.00
12763;BME280;6445;52.490;13.378;2023-02-04T04:57:23;-12694.50;;;-146.10;100.00
12763;BME280;6445;52.490;13.378;2023-02-04T04:59:49;-12695.97;;;-146.10;100.00
12763;BME280;6445;52.490;13.378;2023-02-04T05:02:14;-12695.97;;;-146.10;100.00
12763;BME280;6445;52.490;13.378;2023-02-04T05:04:39;-12695.97;;;-146.10;100.00
12763;BME280;6445;52.490;13.378;2023-02-04T05:07:04;-12695.97;;;-146.10;100.00
12763;BME280;6445;52.490;13.378;2023-02-04T05:09:30;-12695.97;;;-146.10;100.00
12763;BME280;6445;52.490;13.378;2023-02-04T05:11:55;-12695.97;;;-146.10;100.00
12763;BME280;6445;52.490;13.378;2023-02-04T05:14:20;-12695.97;;;-146.10;100.00
12763;BME280;6445;52.490;13.378;2023-02-04T05:16:45;-12695.97;;;-146.10;100.00
12763;BME280;6445;52.490;13.378;2023-02-04T05:19:11;-12695.97;;;-146.10;100.00
12763;BME280;6445;52.490;13.378;2023-02-04T05:21:36;-12695.97;;;-146.10;100.00
12763;BME280;6445;52.490;13.378;2023-02-04T05:24:01;-12695.97;;;-146.10;100.00
12763;BME280;6445;52.490;13.378;2023-02-04T05:26:26;-12695.97;;;-146.10;100.00
12763;BME280;6445;52.490;13.378;2023-02-04T05:28:52;-12695.97;;;-146.10;100.00
12763;BME280;6445;52.490;13.378;2023-02-04T05:31:17;-12695.97;;;-146.10;100.00
12763;BME280;6445;52.490;13.378;2023-02-04T05:33:42;-12695.97;;;-146.10;100.00
12763;BME280;6445;52.490;13.378;2023-02-04T05:36:07;-12695.97;;;-146.10;100.00
12763;BME280;6445;52.490;13.378;2023-02-04T05:38:33;-12695.97;;;-146.10;100.00
12763;BME280;6445;52.490;13.378;2023-02-04T05:40:58;-12695.97;;;-146.10;100.00
12763;BME280;6445;52.490;13.378;2023-02-04T05:43:23;-12695.97;;;-146.10;100.00
12763;BME280;6445;52.490;13.378;2023-02-04T05:45:48;-12695.97;;;-146.10;100.00
12763;BME280;6445;52.490;13.378;2023-02-04T05:48:14;-12695.97;;;-146.10;100.00
12763;BME280;6445;52.490;13.378;2023-02-04T05:50:40;-12695.97;;;-146.10;100.00
12763;BME280;6445;52.490;13.378;2023-02-04T05:53:05;-12695.97;;;-146.10;100.00
12763;BME280;6445;52.490;13.378;2023-02-04T05:55:30;-12695.97;;;-146.10;100.00
12763;BME280;6445;52.490;13.378;2023-02-04T05:57:56;-12695.97;;;-146.10;100.00
12763;BME280;6445;52.490;13.378;2023-02-04T06:00:21;-12695.97;;;-146.10;100.00
12763;BME280;6445;52.490;13.378;2023-02-04T06:02:46;-12695.97;;;-146.10;100.00
12763;BME280;6445;52.490;13.378;2023-02-04T06:05:12;-12695.97;;;-146.10;100.00
12763;BME280;6445;52.490;13.378;2023-02-04T06:07:37;-12695.97;;;-146.10;100.00
12763;BME280;6445;52.490;13.378;2023-02-04T06:10:02;-12695.97;;;-146.10;100.00
12763;BME280;6445;52.490;13.378;2023-02-04T06:12:28;-12695.97;;;-146.10;100.00
12763;BME280;6445;52.490;13.378;2023-02-04T06:14:53;-12695.97;;;-146.10;100.00
12763;BME280;6445;52.490;13.378;2023-02-04T06:17:19;-12695.97;;;-146.10;100.00
12763;BME280;6445;52.490;13.378;2023-02-04T06:19:44;-12695.97;;;-146.10;100.00
12763;BME280;6445;52.490;13.378;2023-02-04T06:22:09;-12695.97;;;-146.10;100.00
12763;BME280;6445;52.490;13.378;2023-02-04T06:24:34;-12695.97;;;-146.10;100.00
12763;BME280;6445;52.490;13.378;2023-02-04T06:27:00;-12695.97;;;-146.10;100.00
12763;BME280;6445;52.490;13.378;2023-02-04T06:29:26;-12695.97;;;-146.10;100.00
12763;BME280;6445;52.490;13.378;2023-02-04T06:31:51;-12695.97;;;-146.10;100.00
12763;BME280;6445;52.490;13.378;2023-02-04T06:34:16;-12695.97;;;-146.10;100.00
12763;BME280;6445;52.490;13.378;2023-02-04T06:36:41;-12695.97;;;-146.10;100.00
12763;BME280;6445;52.490;13.378;2023-02-04T06:39:07;-12695.97;;;-146.10;100.00
12763;BME280;6445;52.490;13.378;2023-02-04T06:41:32;-12695.97;;;-146.10;100.00
12763;BME280;6445;52.490;13.378;2023-02-04T06:43:57;-12695.97;;;-146.10;100.00
12763;BME280;6445;52.490;13.378;2023-02-04T06:46:22;-12695.97;;;-146.10;100.00
12763;BME280;6445;52.490;13.378;2023-02-04T06:48:48;-12695.97;;;-146.10;100.00
12763;BME280;6445;52.490;13.378;2023-02-04T06:51:13;-12695.97;;;-146.10;100.00
12763;BME280;6445;52.490;13.378;2023-02-04T06:53:38;-12695.97;;;-146.10;100.00
12763;BME280;6445;52.490;13.378;2023-02-04T06:56:04;-12695.97;;;-146.10;100.00
12763;BME280;6445;52.490;13.378;2023-02-04T06:58:30;-12695.97;;;-146.10;100.00
12763;BME280;6445;52.490;13.378;2023-02-04T07:00:55;-12695.97;;;-146.10;100.00
12763;BME280;6445;52.490;13.378;2023-02-04T07:03:20;-12695.97;;;-146.10;100.00
12763;BME280;6445;52.490;13.378;2023-02-04T07:05:45;-12695.97;;;-146.10;100.00
12763;BME280;6445;52.490;13.378;2023-02-04T07:08:11;-12695.97;;;-146.10;100.00
12763;BME280;6445;52.490;13.378;2023-02-04T07:10:36;-12695.97;;;-146.10;100.00
12763;BME280;6445;52.490;13.378;2023-02-04T07:13:01;-12695.97;;;-146.10;100.00
12763;BME280;6445;52.490;13.378;2023-02-04T07:15:26;-12695.97;;;-146.10;100.00
12763;BME280;6445;52.490;13.378;2023-02-04T07:17:52;-12695.97;;;-146.10;100.00
12763;BME280;6445;52.490;13.378;2023-02-04T07:20:18;-12695.97;;;-146.10;100.00
12763;BME280;6445;52.490;13.378;2023-02-04T07:22:43;-12695.97;;;-146.10;100.00
12763;BME280;6445;52.490;13.378;2023-02-04T07:25:09;-12695.97;;;-146.10;100.00
12763;BME280;6445;52.490;13.378;2023-02-04T07:27:35;-12695.97;;;-146.10;100.00
12763;BME280;6445;52.490;13.378;2023-02-04T07:30:00;-12695.97;;;-146.10;100.00
12763;BME280;6445;52.490;13.378;2023-02-04T07:32:26;-12695.97;;;-146.10;100.00
12763;BME280;6445;52.490;13.378;2023-02-04T07:34:56;-12695.97;;;-146.10;100.00
12763;BME280;6445;52.490;13.378;2023-02-04T07:37:22;-12695.97;;;-146.10;100.00
12763;BME280;6445;52.490;13.378;2023-02-04T07:39:47;-12695.97;;;-146.10;100.00
12763;BME280;6445;52.490;13.378;2023-02-04T07:42:12;-12695.97;;;-146.10;100.00
12763;BME280;6445;52.490;13.378;2023-02-04T07:44:38;-12695.97;;;-146.10;100.00
12763;BME280;6445;52.490;13.378;2023-02-04T07:47:03;-12695.97;;;-146.10;100.00
12763;BME280;6445;52.490;13.378;2023-02-04T07:49:28;-12695.97;;;-146.10;100.00
12763;BME280;6445;52.490;13.378;2023-02-04T07:51:54;-12695.97;;;-146.10;100.00
12763;BME280;6445;52.490;13.378;2023-02-04T07:54:19;-12695.97;;;-146.10;100.00
12763;BME280;6445;52.490;13.378;2023-02-04T07:56:44;-12695.97;;;-146.10;100.00
12763;BME280;6445;52.490;13.378;2023-02-04T07:59:09;-12695.97;;;-146.10;100.00
12763;BME280;6445;52.490;13.378;2023-02-04T08:01:35;-12695.97;;;-146.10;100.00
12763;BME280;6445;52.490;13.378;2023-02-04T08:04:00;-7906.50;;;-146.10;100.00
12763;BME280;6445;52.490;13.378;2023-02-04T08:06:25;17645.88;;;-146.10;100.00
12763;BME280;6445;52.490;13.378;2023-02-04T08:08:50;39323.19;;;-146.10;99.76
12763;BME280;6445;52.490;13.378;2023-02-04T08:11:16;48866.44;;;-146.10;89.83
12763;BME280;6445;52.490;13.378;2023-02-04T08:13:41;50557.88;;;-146.10;84.49
12763;BME280;6445;52.490;13.378;2023-02-04T08:16:06;51013.84;;;-146.10;83.90
12763;BME280;6445;52.490;13.378;2023-02-04T08:18:31;51169.84;;;-146.10;81.08
12763;BME280;6445;52.490;13.378;2023-02-04T08:20:57;51539.88;;;-146.10;77.13
12763;BME280;6445;52.490;13.378;2023-02-04T08:23:23;51443.88;;;-146.10;80.27
12763;BME280;6445;52.490;13.378;2023-02-04T08:25:48;51479.88;;;-146.10;78.79
12763;BME280;6445;52.490;13.378;2023-02-04T08:28:13;51601.88;;;-146.10;75.56
12763;BME280;6445;52.490;13.378;2023-02-04T08:30:39;51741.91;;;-146.10;69.01
12763;BME280;6445;52.490;13.378;2023-02-04T08:33:04;51833.94;;;-146.10;65.97
12763;BME280;6445;52.490;13.378;2023-02-04T08:35:29;51879.94;;;-146.10;63.04
12763;BME280;6445;52.490;13.378;2023-02-04T08:37:54;51917.94;;;-146.10;62.02
12763;BME280;6445;52.490;13.378;2023-02-04T08:40:20;51953.97;;;-146.10;54.46
12763;BME280;6445;52.490;13.378;2023-02-04T08:42:45;51971.97;;;-146.10;55.74
12763;BME280;6445;52.490;13.378;2023-02-04T08:45:10;51973.97;;;-146.10;54.44
12763;BME280;6445;52.490;13.378;2023-02-04T08:47:36;51941.94;;;-146.10;59.91
12763;BME280;6445;52.490;13.378;2023-02-04T08:50:01;51889.94;;;-146.10;62.34
12763;BME280;6445;52.490;13.378;2023-02-04T08:52:27;51919.94;;;-146.10;63.20
12763;BME280;6445;52.490;13.378;2023-02-04T08:54:52;51931.94;;;-146.10;61.11
12763;BME280;6445;52.490;13.378;2023-02-04T08:57:18;51967.97;;;-146.10;52.96
12763;BME280;6445;52.490;13.378;2023-02-04T08:59:43;51975.97;;;-146.10;54.13
12763;BME280;6445;52.490;13.378;2023-02-04T09:02:09;51979.97;;;-146.10;53.39
12763;BME280;6445;52.490;13.378;2023-02-04T09:04:35;51991.97;;;-146.10;52.34
12763;BME280;6445;52.490;13.378;2023-02-04T09:07:00;52017.97;;;-146.10;50.00
12763;BME280;6445;52.490;13.378;2023-02-04T09:09:25;52074.00;;;-146.10;44.15
12763;BME280;6445;52.490;13.378;2023-02-04T09:11:51;52122.00;;;-146.10;40.34
12763;BME280;6445;52.490;13.378;2023-02-04T09:14:16;52122.00;;;-146.10;39.42
12763;BME280;6445;52.490;13.378;2023-02-04T09:16:41;52076.00;;;-146.10;40.91
12763;BME280;6445;52.490;13.378;2023-02-04T09:19:06;52092.00;;;-146.10;42.81
12763;BME280;6445;52.490;13.378;2023-02-04T09:21:35;52005.97;;;-146.10;47.19
12763;BME280;6445;52.490;13.378;2023-02-04T09:24:00;52005.97;;;-146.10;48.69
12763;BME280;6445;52.490;13.378;2023-02-04T09:26:25;52106.00;;;-146.10;42.10
12763;BME280;6445;52.490;13.378;2023-02-04T09:28:50;52098.00;;;-146.10;40.02
12763;BME280;6445;52.490;13.378;2023-02-04T09:31:16;52096.00;;;-146.10;40.21
12763;BME280;6445;52.490;13.378;2023-02-04T09:33:41;52142.00;;;-146.10;38.78
12763;BME280;6445;52.490;13.378;2023-02-04T09:36:07;52134.00;;;-146.10;37.25
12763;BME280;6445;52.490;13.378;2023-02-04T09:38:32;52118.00;;;-146.10;36.58
12763;BME280;6445;52.490;13.378;2023-02-04T09:41:03;52049.97;;;-146.10;39.36
12763;BME280;6445;52.490;13.378;2023-02-04T09:43:38;52094.00;;;-146.10;39.20
12763;BME280;6445;52.490;13.378;2023-02-04T09:46:04;52013.97;;;-146.10;43.02
12763;BME280;6445;52.490;13.378;2023-02-04T09:48:30;52063.97;;;-146.10;42.58
12763;BME280;6445;52.490;13.378;2023-02-04T09:51:06;52039.97;;;-146.10;40.73
12763;BME280;6445;52.490;13.378;2023-02-04T09:53:32;52027.97;;;-146.10;41.37
12763;BME280;6445;52.490;13.378;2023-02-04T09:55:58;52045.97;;;-146.10;40.71
12763;BME280;6445;52.490;13.378;2023-02-04T09:58:25;52057.97;;;-146.10;41.45
12763;BME280;6445;52.490;13.378;2023-02-04T10:01:13;52136.00;;;-146.10;37.75
12763;BME280;6445;52.490;13.378;2023-02-04T10:03:41;52118.00;;;-146.10;37.33
12763;BME280;6445;52.490;13.378;2023-02-04T10:06:15;52088.00;;;-146.10;38.25
12763;BME280;6445;52.490;13.378;2023-02-04T10:08:41;52080.00;;;-146.10;37.38
12763;BME280;6445;52.490;13.378;2023-02-04T10:11:08;52096.00;;;-146.10;37.65
12763;BME280;6445;52.490;13.378;2023-02-04T10:13:37;52015.97;;;-146.10;40.08
12763;BME280;6445;52.490;13.378;2023-02-04T10:16:12;51925.94;;;-146.10;53.65
12763;BME280;6445;52.490;13.378;2023-02-04T10:18:39;51909.94;;;-146.10;56.79
12763;BME280;6445;52.490;13.378;2023-02-04T10:21:16;51961.97;;;-146.10;52.62
12763;BME280;6445;52.490;13.378;2023-02-04T10:23:43;51971.97;;;-146.10;50.51
12763;BME280;6445;52.490;13.378;2023-02-04T10:26:12;51959.97;;;-146.10;49.72
12763;BME280;6445;52.490;13.378;2023-02-04T10:28:38;51977.97;;;-146.10;50.98
12763;BME280;6445;52.490;13.378;2023-02-04T10:31:05;51975.97;;;-146.10;48.85
12763;BME280;6445;52.490;13.378;2023-02-04T10:33:33;51941.94;;;-146.10;50.73
12763;BME280;6445;52.490;13.378;2023-02-04T10:35:59;51909.94;;;-146.10;56.87
12763;BME280;6445;52.490;13.378;2023-02-04T10:38:24;51901.94;;;-146.10;56.05
12763;BME280;6445;52.490;13.378;2023-02-04T10:41:04;51937.94;;;-146.10;56.08
12763;BME280;6445;52.490;13.378;2023-02-04T10:43:30;51907.94;;;-146.10;55.96
12763;BME280;6445;52.490;13.378;2023-02-04T10:45:57;51897.94;;;-146.10;58.23
12763;BME280;6445;52.490;13.378;2023-02-04T10:48:23;51889.94;;;-146.10;59.41
12763;BME280;6445;52.490;13.378;2023-02-04T10:50:48;51877.94;;;-146.10;61.52
12763;BME280;6445;52.490;13.378;2023-02-04T10:53:15;51869.94;;;-146.10;60.66
12763;BME280;6445;52.490;13.378;2023-02-04T10:56:00;51875.94;;;-146.10;58.85
12763;BME280;6445;52.490;13.378;2023-02-04T10:58:29;51905.94;;;-146.10;54.80
12763;BME280;6445;52.490;13.378;2023-02-04T11:00:55;51943.97;;;-146.10;49.49
12763;BME280;6445;52.490;13.378;2023-02-04T11:03:28;51969.97;;;-146.10;43.91
12763;BME280;6445;52.490;13.378;2023-02-04T11:05:59;51941.94;;;-146.10;44.57
12763;BME280;6445;52.490;13.378;2023-02-04T11:10:58;51931.94;;;-146.10;43.18
12763;BME280;6445;52.490;13.378;2023-02-04T11:13:27;51931.94;;;-146.10;47.12
12763;BME280;6445;52.490;13.378;2023-02-04T11:19:02;51899.94;;;-146.10;47.91
12763;BME280;6445;52.490;13.378;2023-02-04T11:21:40;51917.94;;;-146.10;46.72
12763;BME280;6445;52.490;13.378;2023-02-04T11:26:43;51899.94;;;-146.10;46.62
12763;BME280;6445;52.490;13.378;2023-02-04T11:31:44;51901.94;;;-146.10;54.18
12763;BME280;6445;52.490;13.378;2023-02-04T11:39:15;51887.94;;;-146.10;59.01
12763;BME280;6445;52.490;13.378;2023-02-04T11:41:44;51945.97;;;-146.10;48.78
12763;BME280;6445;52.490;13.378;2023-02-04T11:44:10;51933.94;;;-146.10;46.66
12763;BME280;6445;52.490;13.378;2023-02-04T11:46:36;51945.97;;;-146.10;46.03
12763;BME280;6445;52.490;13.378;2023-02-04T11:49:01;51949.97;;;-146.10;45.71
12763;BME280;6445;52.490;13.378;2023-02-04T11:51:30;52001.97;;;-146.10;41.30
12763;BME280;6445;52.490;13.378;2023-02-04T11:53:56;51945.97;;;-146.10;41.08
12763;BME280;6445;52.490;13.378;2023-02-04T11:56:22;51897.94;;;-146.10;46.28
12763;BME280;6445;52.490;13.378;2023-02-04T11:58:49;51933.94;;;-146.10;44.36
12763;BME280;6445;52.490;13.378;2023-02-04T12:01:23;51951.97;;;-146.10;39.46
12763;BME280;6445;52.490;13.378;2023-02-04T12:03:56;51979.97;;;-146.10;38.48
12763;BME280;6445;52.490;13.378;2023-02-04T12:06:24;52009.97;;;-146.10;36.19
12763;BME280;6445;52.490;13.378;2023-02-04T12:08:50;52019.97;;;-146.10;36.37
12763;BME280;6445;52.490;13.378;2023-02-04T12:11:27;51961.97;;;-146.10;37.81
12763;BME280;6445;52.490;13.378;2023-02-04T12:13:56;51943.97;;;-146.10;39.93
12763;BME280;6445;52.490;13.378;2023-02-04T12:16:22;52017.97;;;-146.10;37.67
12763;BME280;6445;52.490;13.378;2023-02-04T12:18:47;52063.97;;;-146.10;34.85
12763;BME280;6445;52.490;13.378;2023-02-04T12:21:13;52106.00;;;-146.10;33.26
12763;BME280;6445;52.490;13.378;2023-02-04T12:23:43;52005.97;;;-146.10;37.16
12763;BME280;6445;52.490;13.378;2023-02-04T12:26:08;51945.97;;;-146.10;38.89
12763;BME280;6445;52.490;13.378;2023-02-04T12:28:34;51903.94;;;-146.10;42.16
12763;BME280;6445;52.490;13.378;2023-02-04T12:30:59;51871.94;;;-146.10;47.97
12763;BME280;6445;52.490;13.378;2023-02-04T12:33:25;51847.94;;;-146.10;49.12
12763;BME280;6445;52.490;13.378;2023-02-04T12:35:50;51869.94;;;-146.10;45.50
12763;BME280;6445;52.490;13.378;2023-02-04T12:38:16;51895.94;;;-146.10;44.43